sensor_id;sensor_type;location;lat;lon;timestamp;pressure;altitude;pressure_sealevel;temperature;humidity
44044;BME280;29709;52.396;16.796;2024-01-16T00:01:21;99948.20;;;-0.18;66.15
44044;BME280;29709;52.396;16.796;2024-01-16T00:04:37;99951.25;;;-0.23;66.25
44044;BME280;29709;52.396;16.796;2024-01-16T00:07:50;99953.35;;;-0.26;65.97
44044;BME280;29709;52.396;16.796;2024-01-16T00:11:03;99956.30;;;-0.30;66.14
44044;BME280;29709;52.396;16.796;2024-01-16T00:14:18;99963.41;;;-0.28;66.41
44044;BME280;29709;52.396;16.796;2024-01-16T00:17:31;99965.01;;;-0.26;66.72
44044;BME280;29709;52.396;16.796;2024-01-16T00:20:45;99960.72;;;-0.28;66.47
44044;BME280;29709;52.396;16.796;2024-01-16T00:23:58;99968.94;;;-0.30;66.69
44044;BME280;29709;52.396;16.796;2024-01-16T00:27:11;99978.12;;;-0.33;66.36
44044;BME280;29709;52.396;16.796;2024-01-16T00:30:24;99972.96;;;-0.36;66.85
44044;BME280;29709;52.396;16.796;2024-01-16T00:33:37;99980.20;;;-0.36;66.28
44044;BME280;29709;52.396;16.796;2024-01-16T00:36:50;99990.14;;;-0.37;66.37
44044;BME280;29709;52.396;16.796;2024-01-16T00:40:04;100005.48;;;-0.37;66.18
44044;BME280;29709;52.396;16.796;2024-01-16T00:43:18;100007.82;;;-0.33;66.36
44044;BME280;29709;52.396;16.796;2024-01-16T00:46:32;100016.77;;;-0.32;65.96
44044;BME280;29709;52.396;16.796;2024-01-16T00:49:45;100005.63;;;-0.27;66.53
44044;BME280;29709;52.396;16.796;2024-01-16T00:52:58;100020.11;;;-0.28;65.73
44044;BME280;29709;52.396;16.796;2024-01-16T00:56:11;100028.84;;;-0.25;66.30
44044;BME280;29709;52.396;16.796;2024-01-16T00:59:26;100036.81;;;-0.23;66.13
44044;BME280;29709;52.396;16.796;2024-01-16T01:02:39;100044.70;;;-0.20;66.55
44044;BME280;29709;52.396;16.796;2024-01-16T01:05:52;100047.89;;;-0.15;66.48
44044;BME280;29709;52.396;16.796;2024-01-16T01:09:06;100050.59;;;-0.15;66.44
44044;BME280;29709;52.396;16.796;2024-01-16T01:12:19;100053.16;;;-0.14;65.86
44044;BME280;29709;52.396;16.796;2024-01-16T01:15:33;100052.55;;;-0.17;66.09
44044;BME280;29709;52.396;16.796;2024-01-16T01:18:46;100064.82;;;-0.13;66.29
44044;BME280;29709;52.396;16.796;2024-01-16T01:22:00;100058.10;;;-0.08;66.07
44044;BME280;29709;52.396;16.796;2024-01-16T01:25:13;100058.59;;;-0.03;66.26
44044;BME280;29709;52.396;16.796;2024-01-16T01:28:26;100072.62;;;0.03;66.25
44044;BME280;29709;52.396;16.796;2024-01-16T01:31:39;100069.91;;;0.03;66.13
44044;BME280;29709;52.396;16.796;2024-01-16T01:34:52;100086.46;;;-0.02;66.08
44044;BME280;29709;52.396;16.796;2024-01-16T01:38:05;100094.57;;;-0.02;66.46
44044;BME280;29709;52.396;16.796;2024-01-16T01:41:21;100093.83;;;-0.04;66.37
44044;BME280;29709;52.396;16.796;2024-01-16T01:44:34;100104.77;;;-0.06;66.34
44044;BME280;29709;52.396;16.796;2024-01-16T01:47:47;100101.20;;;-0.06;66.12
44044;BME280;29709;52.396;16.796;2024-01-16T01:51:01;100113.11;;;-0.09;66.36
44044;BME280;29709;52.396;16.796;2024-01-16T01:54:17;100114.70;;;-0.06;65.83
44044;BME280;29709;52.396;16.796;2024-01-16T01:57:33;100126.49;;;-0.07;66.60
44044;BME280;29709;52.396;16.796;2024-01-16T02:00:47;100121.34;;;-0.10;66.44
44044;BME280;29709;52.396;16.796;2024-01-16T02:04:02;100118.23;;;-0.17;66.71
44044;BME280;29709;52.396;16.796;2024-01-16T02:07:15;100125.80;;;-0.22;66.80
44044;BME280;29709;52.396;16.796;2024-01-16T02:10:29;100121.26;;;-0.21;66.80
44044;BME280;29709;52.396;16.796;2024-01-16T02:13:42;100121.91;;;-0.18;66.26
44044;BME280;29709;52.396;16.796;2024-01-16T02:16:55;100127.19;;;-0.16;66.22
44044;BME280;29709;52.396;16.796;2024-01-16T02:20:09;100123.39;;;-0.14;66.00
44044;BME280;29709;52.396;16.796;2024-01-16T02:23:27;100123.14;;;-0.11;66.42
44044;BME280;29709;52.396;16.796;2024-01-16T02:26:40;100141.20;;;-0.11;65.92
44044;BME280;29709;52.396;16.796;2024-01-16T02:29:54;100153.75;;;-0.10;66.82
44044;BME280;29709;52.396;16.796;2024-01-16T02:33:08;100161.55;;;-0.18;66.48
44044;BME280;29709;52.396;16.796;2024-01-16T02:36:22;100159.06;;;-0.21;66.70
44044;BME280;29709;52.396;16.796;2024-01-16T02:39:36;100158.12;;;-0.20;67.09
44044;BME280;29709;52.396;16.796;2024-01-16T02:42:50;100168.15;;;-0.22;66.70
44044;BME280;29709;52.396;16.796;2024-01-16T02:46:03;100194.66;;;-0.27;67.00
44044;BME280;29709;52.396;16.796;2024-01-16T02:49:17;100197.23;;;-0.26;66.88
44044;BME280;29709;52.396;16.796;2024-01-16T02:52:30;100195.10;;;-0.34;66.80
44044;BME280;29709;52.396;16.796;2024-01-16T02:55:44;100190.79;;;-0.36;67.03
44044;BME280;29709;52.396;16.796;2024-01-16T02:58:57;100202.13;;;-0.31;67.33
44044;BME280;29709;52.396;16.796;2024-01-16T03:02:10;100198.27;;;-0.40;67.40
44044;BME280;29709;52.396;16.796;2024-01-16T03:05:24;100199.13;;;-0.39;67.41
44044;BME280;29709;52.396;16.796;2024-01-16T03:08:37;100215.45;;;-0.41;67.10
44044;BME280;29709;52.396;16.796;2024-01-16T03:11:50;100214.67;;;-0.43;67.33
44044;BME280;29709;52.396;16.796;2024-01-16T03:15:04;100221.58;;;-0.39;67.27
44044;BME280;29709;52.396;16.796;2024-01-16T03:18:18;100220.37;;;-0.35;67.29
44044;BME280;29709;52.396;16.796;2024-01-16T03:21:32;100216.59;;;-0.32;67.48
44044;BME280;29709;52.396;16.796;2024-01-16T03:24:46;100217.36;;;-0.30;67.70
44044;BME280;29709;52.396;16.796;2024-01-16T03:27:59;100215.64;;;-0.31;67.72
44044;BME280;29709;52.396;16.796;2024-01-16T03:31:13;100233.99;;;-0.36;67.74
44044;BME280;29709;52.396;16.796;2024-01-16T03:34:34;100242.44;;;-0.41;67.10
44044;BME280;29709;52.396;16.796;2024-01-16T03:37:47;100241.35;;;-0.38;67.85
44044;BME280;29709;52.396;16.796;2024-01-16T03:41:00;100244.36;;;-0.43;66.37
44044;BME280;29709;52.396;16.796;2024-01-16T03:44:13;100239.74;;;-0.41;65.68
44044;BME280;29709;52.396;16.796;2024-01-16T03:47:26;100240.61;;;-0.40;65.93
44044;BME280;29709;52.396;16.796;2024-01-16T03:50:40;100262.83;;;-0.37;66.44
44044;BME280;29709;52.396;16.796;2024-01-16T03:53:57;100267.99;;;-0.34;67.05
44044;BME280;29709;52.396;16.796;2024-01-16T03:57:11;100272.22;;;-0.30;66.54
44044;BME280;29709;52.396;16.796;2024-01-16T04:00:25;100265.84;;;-0.28;66.33
44044;BME280;29709;52.396;16.796;2024-01-16T04:03:39;100272.73;;;-0.24;67.48
44044;BME280;29709;52.396;16.796;2024-01-16T04:06:52;100272.22;;;-0.30;66.75
44044;BME280;29709;52.396;16.796;2024-01-16T04:10:06;100279.10;;;-0.25;67.11
44044;BME280;29709;52.396;16.796;2024-01-16T04:13:20;100283.88;;;-0.29;66.47
44044;BME280;29709;52.396;16.796;2024-01-16T04:16:33;100290.34;;;-0.32;65.99
44044;BME280;29709;52.396;16.796;2024-01-16T04:19:46;100287.98;;;-0.36;65.58
44044;BME280;29709;52.396;16.796;2024-01-16T04:23:00;100281.10;;;-0.40;66.12
44044;BME280;29709;52.396;16.796;2024-01-16T04:26:13;100284.78;;;-0.41;64.95
44044;BME280;29709;52.396;16.796;2024-01-16T04:29:26;100289.86;;;-0.49;65.07
44044;BME280;29709;52.396;16.796;2024-01-16T04:32:39;100296.34;;;-0.52;64.87
44044;BME280;29709;52.396;16.796;2024-01-16T04:35:53;100288.57;;;-0.56;65.27
44044;BME280;29709;52.396;16.796;2024-01-16T04:39:06;100296.13;;;-0.62;65.23
44044;BME280;29709;52.396;16.796;2024-01-16T04:42:21;100323.33;;;-0.65;65.59
44044;BME280;29709;52.396;16.796;2024-01-16T04:45:35;100326.14;;;-0.66;65.79
44044;BME280;29709;52.396;16.796;2024-01-16T04:48:48;100321.39;;;-0.75;65.05
44044;BME280;29709;52.396;16.796;2024-01-16T04:52:03;100324.31;;;-0.78;65.24
44044;BME280;29709;52.396;16.796;2024-01-16T04:55:16;100325.59;;;-0.84;65.46
44044;BME280;29709;52.396;16.796;2024-01-16T04:58:29;100330.98;;;-0.84;65.46
44044;BME280;29709;52.396;16.796;2024-01-16T05:01:42;100325.92;;;-0.89;65.13
44044;BME280;29709;52.396;16.796;2024-01-16T05:04:55;100332.19;;;-1.01;66.04
44044;BME280;29709;52.396;16.796;2024-01-16T05:08:09;100341.13;;;-1.13;66.04
44044;BME280;29709;52.396;16.796;2024-01-16T05:11:22;100340.89;;;-1.23;66.41
44044;BME280;29709;52.396;16.796;2024-01-16T05:14:35;100347.25;;;-1.24;66.58
44044;BME280;29709;52.396;16.796;2024-01-16T05:17:49;100348.23;;;-1.25;66.46
44044;BME280;29709;52.396;16.796;2024-01-16T05:21:02;100354.34;;;-1.35;66.53
44044;BME280;29709;52.396;16.796;2024-01-16T05:24:15;100360.13;;;-1.41;66.99
44044;BME280;29709;52.396;16.796;2024-01-16T05:27:28;100374.11;;;-1.49;67.31
44044;BME280;29709;52.396;16.796;2024-01-16T05:30:42;100367.60;;;-1.59;67.44
44044;BME280;29709;52.396;16.796;2024-01-16T05:33:55;100380.01;;;-1.57;67.67
44044;BME280;29709;52.396;16.796;2024-01-16T05:37:09;100390.34;;;-1.63;68.27
44044;BME280;29709;52.396;16.796;2024-01-16T05:40:23;100388.02;;;-1.55;68.58
44044;BME280;29709;52.396;16.796;2024-01-16T05:43:36;100391.20;;;-1.63;68.17
44044;BME280;29709;52.396;16.796;2024-01-16T05:46:49;100389.77;;;-1.68;68.38
44044;BME280;29709;52.396;16.796;2024-01-16T05:50:03;100388.52;;;-1.63;69.17
44044;BME280;29709;52.396;16.796;2024-01-16T05:53:17;100392.72;;;-1.59;68.84
44044;BME280;29709;52.396;16.796;2024-01-16T05:56:31;100402.25;;;-1.53;69.31
44044;BME280;29709;52.396;16.796;2024-01-16T05:59:46;100394.52;;;-1.45;69.28
44044;BME280;29709;52.396;16.796;2024-01-16T06:03:00;100401.74;;;-1.46;69.11
44044;BME280;29709;52.396;16.796;2024-01-16T06:06:13;100407.89;;;-1.43;69.52
44044;BME280;29709;52.396;16.796;2024-01-16T06:09:26;100418.78;;;-1.45;69.08
44044;BME280;29709;52.396;16.796;2024-01-16T06:12:39;100411.55;;;-1.44;69.13
44044;BME280;29709;52.396;16.796;2024-01-16T06:15:53;100420.19;;;-1.39;69.20
44044;BME280;29709;52.396;16.796;2024-01-16T06:19:07;100421.16;;;-1.40;69.55
44044;BME280;29709;52.396;16.796;2024-01-16T06:22:21;100434.63;;;-1.40;68.97
44044;BME280;29709;52.396;16.796;2024-01-16T06:25:34;100433.20;;;-1.46;68.82
44044;BME280;29709;52.396;16.796;2024-01-16T06:28:47;100435.89;;;-1.46;69.00
44044;BME280;29709;52.396;16.796;2024-01-16T06:32:00;100438.52;;;-1.44;69.42
44044;BME280;29709;52.396;16.796;2024-01-16T06:35:14;100444.08;;;-1.48;69.22
44044;BME280;29709;52.396;16.796;2024-01-16T06:38:27;100447.95;;;-1.52;68.83
44044;BME280;29709;52.396;16.796;2024-01-16T06:41:41;100456.35;;;-1.56;68.61
44044;BME280;29709;52.396;16.796;2024-01-16T06:44:54;100466.66;;;-1.63;68.94
44044;BME280;29709;52.396;16.796;2024-01-16T06:48:07;100469.13;;;-1.60;69.02
44044;BME280;29709;52.396;16.796;2024-01-16T06:51:21;100477.02;;;-1.57;68.96
44044;BME280;29709;52.396;16.796;2024-01-16T06:54:34;100476.84;;;-1.54;68.87
44044;BME280;29709;52.396;16.796;2024-01-16T06:57:48;100491.28;;;-1.55;68.74
44044;BME280;29709;52.396;16.796;2024-01-16T07:01:01;100496.36;;;-1.50;69.02
44044;BME280;29709;52.396;16.796;2024-01-16T07:04:15;100508.77;;;-1.48;69.33
44044;BME280;29709;52.396;16.796;2024-01-16T07:07:28;100506.45;;;-1.39;69.11
44044;BME280;29709;52.396;16.796;2024-01-16T07:10:43;100513.18;;;-1.32;69.08
44044;BME280;29709;52.396;16.796;2024-01-16T07:13:56;100528.07;;;-1.27;68.96
44044;BME280;29709;52.396;16.796;2024-01-16T07:17:10;100535.88;;;-1.22;69.21
44044;BME280;29709;52.396;16.796;2024-01-16T07:20:23;100549.16;;;-1.19;69.18
44044;BME280;29709;52.396;16.796;2024-01-16T07:23:36;100549.81;;;-1.16;69.41
44044;BME280;29709;52.396;16.796;2024-01-16T07:26:49;100554.51;;;-1.05;69.93
44044;BME280;29709;52.396;16.796;2024-01-16T07:30:07;100554.22;;;-1.00;69.26
44044;BME280;29709;52.396;16.796;2024-01-16T07:33:21;100563.55;;;-0.92;69.22
44044;BME280;29709;52.396;16.796;2024-01-16T07:36:34;100563.88;;;-0.83;69.26
44044;BME280;29709;52.396;16.796;2024-01-16T07:39:48;100559.92;;;-0.78;68.46
44044;BME280;29709;52.396;16.796;2024-01-16T07:43:01;100564.61;;;-0.67;69.24
44044;BME280;29709;52.396;16.796;2024-01-16T07:46:15;100577.48;;;-0.58;69.13
44044;BME280;29709;52.396;16.796;2024-01-16T07:49:29;100584.29;;;-0.52;69.37
44044;BME280;29709;52.396;16.796;2024-01-16T07:52:42;100586.91;;;-0.51;68.85
44044;BME280;29709;52.396;16.796;2024-01-16T07:55:55;100587.67;;;-0.49;69.07
44044;BME280;29709;52.396;16.796;2024-01-16T07:59:09;100596.52;;;-0.47;68.60
44044;BME280;29709;52.396;16.796;2024-01-16T08:02:31;100600.96;;;-0.46;68.40
44044;BME280;29709;52.396;16.796;2024-01-16T08:05:44;100595.15;;;-0.40;68.30
44044;BME280;29709;52.396;16.796;2024-01-16T08:08:58;100596.89;;;-0.39;67.28
44044;BME280;29709;52.396;16.796;2024-01-16T08:12:11;100603.90;;;-0.36;67.44
44044;BME280;29709;52.396;16.796;2024-01-16T08:15:24;100611.89;;;-0.35;67.80
44044;BME280;29709;52.396;16.796;2024-01-16T08:18:38;100615.27;;;-0.31;67.84
44044;BME280;29709;52.396;16.796;2024-01-16T08:21:51;100619.02;;;-0.34;66.59
44044;BME280;29709;52.396;16.796;2024-01-16T08:25:05;100626.60;;;-0.26;67.39
44044;BME280;29709;52.396;16.796;2024-01-16T08:28:19;100632.27;;;-0.16;67.56
44044;BME280;29709;52.396;16.796;2024-01-16T08:31:33;100639.28;;;-0.14;66.69
44044;BME280;29709;52.396;16.796;2024-01-16T08:34:47;100643.31;;;-0.07;66.48
44044;BME280;29709;52.396;16.796;2024-01-16T08:38:00;100643.95;;;-0.03;66.46
44044;BME280;29709;52.396;16.796;2024-01-16T08:41:14;100655.62;;;-0.03;67.37
44044;BME280;29709;52.396;16.796;2024-01-16T08:44:27;100653.60;;;0.01;65.47
44044;BME280;29709;52.396;16.796;2024-01-16T08:47:40;100658.22;;;-0.01;65.97
44044;BME280;29709;52.396;16.796;2024-01-16T08:53:53;100668.77;;;-0.11;65.19
44044;BME280;29709;52.396;16.796;2024-01-16T08:57:06;100658.19;;;-0.14;65.83
44044;BME280;29709;52.396;16.796;2024-01-16T09:00:22;100659.92;;;-0.13;65.03
44044;BME280;29709;52.396;16.796;2024-01-16T09:03:36;100664.02;;;-0.20;64.16
44044;BME280;29709;52.396;16.796;2024-01-16T09:06:49;100667.52;;;-0.32;64.42
44044;BME280;29709;52.396;16.796;2024-01-16T09:10:03;100667.09;;;-0.39;63.89
44044;BME280;29709;52.396;16.796;2024-01-16T09:13:17;100681.48;;;-0.25;65.09
44044;BME280;29709;52.396;16.796;2024-01-16T09:16:30;100679.80;;;-0.14;64.53
44044;BME280;29709;52.396;16.796;2024-01-16T09:19:43;100684.34;;;-0.14;63.69
44044;BME280;29709;52.396;16.796;2024-01-16T09:22:56;100692.44;;;-0.14;64.34
44044;BME280;29709;52.396;16.796;2024-01-16T09:26:10;100690.72;;;-0.15;64.30
44044;BME280;29709;52.396;16.796;2024-01-16T09:29:23;100689.63;;;-0.13;64.60
44044;BME280;29709;52.396;16.796;2024-01-16T09:32:37;100681.13;;;-0.07;64.79
44044;BME280;29709;52.396;16.796;2024-01-16T09:35:51;100695.64;;;0.05;64.91
44044;BME280;29709;52.396;16.796;2024-01-16T09:39:06;100701.74;;;0.21;65.09
44044;BME280;29709;52.396;16.796;2024-01-16T09:42:27;100705.31;;;0.22;65.25
44044;BME280;29709;52.396;16.796;2024-01-16T09:45:40;100708.77;;;0.24;65.31
44044;BME280;29709;52.396;16.796;2024-01-16T09:48:55;100709.74;;;0.23;65.21
44044;BME280;29709;52.396;16.796;2024-01-16T09:52:09;100709.52;;;0.26;64.42
44044;BME280;29709;52.396;16.796;2024-01-16T09:55:22;100717.66;;;0.39;64.61
44044;BME280;29709;52.396;16.796;2024-01-16T09:58:36;100716.27;;;0.46;64.02
44044;BME280;29709;52.396;16.796;2024-01-16T10:01:54;100725.03;;;0.49;63.11
44044;BME280;29709;52.396;16.796;2024-01-16T10:05:12;100729.91;;;0.57;63.43
44044;BME280;29709;52.396;16.796;2024-01-16T10:08:29;100730.55;;;0.61;64.21
44044;BME280;29709;52.396;16.796;2024-01-16T10:11:43;100726.34;;;0.56;63.74
44044;BME280;29709;52.396;16.796;2024-01-16T10:14:58;100743.03;;;0.63;64.43
44044;BME280;29709;52.396;16.796;2024-01-16T10:18:21;100728.41;;;0.78;64.42
44044;BME280;29709;52.396;16.796;2024-01-16T10:21:37;100728.75;;;0.74;63.95
44044;BME280;29709;52.396;16.796;2024-01-16T10:28:19;100730.48;;;0.75;64.37
44044;BME280;29709;52.396;16.796;2024-01-16T10:31:33;100737.17;;;0.82;64.75
44044;BME280;29709;52.396;16.796;2024-01-16T10:34:47;100736.64;;;0.90;64.05
44044;BME280;29709;52.396;16.796;2024-01-16T10:38:00;100740.09;;;0.92;63.99
44044;BME280;29709;52.396;16.796;2024-01-16T10:41:15;100744.42;;;0.81;63.71
44044;BME280;29709;52.396;16.796;2024-01-16T10:44:30;100738.49;;;0.76;63.47
44044;BME280;29709;52.396;16.796;2024-01-16T10:47:49;100742.91;;;0.65;63.24
44044;BME280;29709;52.396;16.796;2024-01-16T10:51:13;100734.12;;;0.61;63.40
44044;BME280;29709;52.396;16.796;2024-01-16T10:54:27;100734.05;;;0.63;63.59
44044;BME280;29709;52.396;16.796;2024-01-16T10:57:41;100731.53;;;0.60;62.64
44044;BME280;29709;52.396;16.796;2024-01-16T11:00:57;100720.19;;;0.67;63.05
44044;BME280;29709;52.396;16.796;2024-01-16T11:04:12;100726.58;;;0.66;61.37
44044;BME280;29709;52.396;16.796;2024-01-16T11:07:25;100728.75;;;0.74;62.16
44044;BME280;29709;52.396;16.796;2024-01-16T11:10:40;100736.20;;;0.83;62.13
44044;BME280;29709;52.396;16.796;2024-01-16T11:13:54;100731.13;;;0.78;61.56
44044;BME280;29709;52.396;16.796;2024-01-16T11:17:09;100725.93;;;0.88;60.52
44044;BME280;29709;52.396;16.796;2024-01-16T11:20:32;100729.29;;;1.04;61.20
44044;BME280;29709;52.396;16.796;2024-01-16T11:23:48;100724.19;;;1.00;59.12
44044;BME280;29709;52.396;16.796;2024-01-16T11:27:01;100726.77;;;1.14;61.05
44044;BME280;29709;52.396;16.796;2024-01-16T11:33:42;100745.61;;;1.28;60.49
44044;BME280;29709;52.396;16.796;2024-01-16T11:36:55;100746.89;;;1.23;60.48
44044;BME280;29709;52.396;16.796;2024-01-16T11:40:21;100750.07;;;1.17;59.19
44044;BME280;29709;52.396;16.796;2024-01-16T11:43:36;100758.30;;;1.15;60.20
44044;BME280;29709;52.396;16.796;2024-01-16T11:47:01;100767.48;;;1.12;60.49
44044;BME280;29709;52.396;16.796;2024-01-16T11:53:40;100768.67;;;1.21;60.75
44044;BME280;29709;52.396;16.796;2024-01-16T11:57:08;100768.37;;;1.26;59.78
44044;BME280;29709;52.396;16.796;2024-01-16T12:00:20;100767.58;;;1.24;60.03
44044;BME280;29709;52.396;16.796;2024-01-16T12:03:34;100763.60;;;1.17;59.34
44044;BME280;29709;52.396;16.796;2024-01-16T12:06:57;100772.25;;;1.22;59.25
44044;BME280;29709;52.396;16.796;2024-01-16T12:10:12;100767.69;;;1.22;60.38
44044;BME280;29709;52.396;16.796;2024-01-16T12:13:26;100767.50;;;1.25;59.86
44044;BME280;29709;52.396;16.796;2024-01-16T12:16:40;100768.68;;;1.08;60.15
44044;BME280;29709;52.396;16.796;2024-01-16T12:19:53;100763.27;;;1.08;59.95
44044;BME280;29709;52.396;16.796;2024-01-16T12:23:07;100760.45;;;1.10;60.58
44044;BME280;29709;52.396;16.796;2024-01-16T12:26:24;100758.73;;;1.09;60.84
44044;BME280;29709;52.396;16.796;2024-01-16T12:29:37;100761.77;;;1.04;61.03
44044;BME280;29709;52.396;16.796;2024-01-16T12:36:22;100764.36;;;1.06;61.43
44044;BME280;29709;52.396;16.796;2024-01-16T12:39:35;100764.66;;;1.01;61.33
44044;BME280;29709;52.396;16.796;2024-01-16T12:42:48;100768.68;;;1.08;62.07
44044;BME280;29709;52.396;16.796;2024-01-16T12:46:03;100772.25;;;1.09;61.57
44044;BME280;29709;52.396;16.796;2024-01-16T12:49:16;100766.42;;;1.15;61.90
44044;BME280;29709;52.396;16.796;2024-01-16T12:52:30;100764.66;;;1.14;61.65
44044;BME280;29709;52.396;16.796;2024-01-16T12:55:45;100769.99;;;1.15;61.90
44044;BME280;29709;52.396;16.796;2024-01-16T13:02:21;100769.66;;;1.07;61.50
44044;BME280;29709;52.396;16.796;2024-01-16T13:05:35;100770.61;;;0.94;62.13
44044;BME280;29709;52.396;16.796;2024-01-16T13:09:04;100763.70;;;0.90;62.56
44044;BME280;29709;52.396;16.796;2024-01-16T13:12:20;100768.47;;;0.86;63.59
44044;BME280;29709;52.396;16.796;2024-01-16T13:15:34;100760.54;;;0.83;64.36
44044;BME280;29709;52.396;16.796;2024-01-16T13:19:00;100768.58;;;0.84;64.49
44044;BME280;29709;52.396;16.796;2024-01-16T13:22:10;100770.20;;;0.87;64.63
44044;BME280;29709;52.396;16.796;2024-01-16T13:25:23;100763.24;;;0.83;65.01
44044;BME280;29709;52.396;16.796;2024-01-16T13:28:37;100773.13;;;0.84;65.05
44044;BME280;29709;52.396;16.796;2024-01-16T13:31:50;100768.99;;;0.78;65.45
44044;BME280;29709;52.396;16.796;2024-01-16T13:35:08;100768.23;;;0.76;66.18
44044;BME280;29709;52.396;16.796;2024-01-16T13:38:22;100775.91;;;0.82;66.08
44044;BME280;29709;52.396;16.796;2024-01-16T13:41:35;100769.22;;;0.88;66.32
44044;BME280;29709;52.396;16.796;2024-01-16T13:44:48;100741.49;;;0.72;66.11
44044;BME280;29709;52.396;16.796;2024-01-16T13:48:02;100766.63;;;0.86;66.46
44044;BME280;29709;52.396;16.796;2024-01-16T13:51:15;100775.38;;;0.90;66.20
44044;BME280;29709;52.396;16.796;2024-01-16T13:54:28;100780.69;;;0.92;66.00
44044;BME280;29709;52.396;16.796;2024-01-16T13:57:42;100786.31;;;0.76;66.22
44044;BME280;29709;52.396;16.796;2024-01-16T14:00:55;100787.81;;;0.67;66.48
44044;BME280;29709;52.396;16.796;2024-01-16T14:04:11;100796.56;;;0.71;66.83
44044;BME280;29709;52.396;16.796;2024-01-16T14:07:25;100786.31;;;0.76;66.77
44044;BME280;29709;52.396;16.796;2024-01-16T14:10:38;100796.16;;;0.77;66.81
44044;BME280;29709;52.396;16.796;2024-01-16T14:13:52;100800.60;;;0.78;66.90
44044;BME280;29709;52.396;16.796;2024-01-16T14:17:07;100792.80;;;0.73;67.16
44044;BME280;29709;52.396;16.796;2024-01-16T14:20:21;100799.38;;;0.69;67.43
44044;BME280;29709;52.396;16.796;2024-01-16T14:23:36;100793.32;;;0.66;68.01
44044;BME280;29709;52.396;16.796;2024-01-16T14:26:51;100798.40;;;0.70;68.08
44044;BME280;29709;52.396;16.796;2024-01-16T14:30:09;100794.95;;;0.68;68.44
44044;BME280;29709;52.396;16.796;2024-01-16T14:33:23;100797.20;;;0.62;68.83
44044;BME280;29709;52.396;16.796;2024-01-16T14:36:36;100796.87;;;0.53;70.03
44044;BME280;29709;52.396;16.796;2024-01-16T14:39:50;100800.34;;;0.55;69.95
44044;BME280;29709;52.396;16.796;2024-01-16T14:43:03;100804.06;;;0.40;70.77
44044;BME280;29709;52.396;16.796;2024-01-16T14:46:17;100814.19;;;0.24;71.54
44044;BME280;29709;52.396;16.796;2024-01-16T14:49:31;100821.27;;;0.12;72.14
44044;BME280;29709;52.396;16.796;2024-01-16T14:52:51;100830.36;;;0.11;72.46
44044;BME280;29709;52.396;16.796;2024-01-16T14:56:04;100811.33;;;0.13;72.40
44044;BME280;29709;52.396;16.796;2024-01-16T14:59:18;100822.63;;;0.05;72.74
44044;BME280;29709;52.396;16.796;2024-01-16T15:02:31;100814.43;;;0.07;73.01
44044;BME280;29709;52.396;16.796;2024-01-16T15:05:50;100815.98;;;0.11;73.36
44044;BME280;29709;52.396;16.796;2024-01-16T15:09:05;100819.44;;;0.13;73.17
44044;BME280;29709;52.396;16.796;2024-01-16T15:12:23;100823.01;;;0.13;73.61
44044;BME280;29709;52.396;16.796;2024-01-16T15:15:36;100817.96;;;0.21;73.40
44044;BME280;29709;52.396;16.796;2024-01-16T15:18:50;100809.43;;;0.27;73.13
44044;BME280;29709;52.396;16.796;2024-01-16T15:22:03;100808.36;;;0.30;73.19
44044;BME280;29709;52.396;16.796;2024-01-16T15:25:18;100807.91;;;0.23;73.34
44044;BME280;29709;52.396;16.796;2024-01-16T15:28:37;100795.55;;;0.19;73.22
44044;BME280;29709;52.396;16.796;2024-01-16T15:31:50;100803.88;;;0.16;73.55
44044;BME280;29709;52.396;16.796;2024-01-16T15:35:05;100809.49;;;0.13;73.55
44044;BME280;29709;52.396;16.796;2024-01-16T15:38:20;100806.58;;;0.16;73.37
44044;BME280;29709;52.396;16.796;2024-01-16T15:41:36;100797.71;;;0.14;73.45
44044;BME280;29709;52.396;16.796;2024-01-16T15:44:49;100811.23;;;0.14;73.92
44044;BME280;29709;52.396;16.796;2024-01-16T15:48:02;100811.02;;;0.17;73.61
44044;BME280;29709;52.396;16.796;2024-01-16T15:51:17;100813.61;;;0.19;73.72
44044;BME280;29709;52.396;16.796;2024-01-16T15:54:30;100810.52;;;0.25;73.81
44044;BME280;29709;52.396;16.796;2024-01-16T15:57:46;100815.34;;;0.20;74.40
44044;BME280;29709;52.396;16.796;2024-01-16T16:00:59;100804.89;;;0.28;74.32
44044;BME280;29709;52.396;16.796;2024-01-16T16:04:13;100809.32;;;0.29;74.14
44044;BME280;29709;52.396;16.796;2024-01-16T16:07:26;100807.60;;;0.28;74.38
44044;BME280;29709;52.396;16.796;2024-01-16T16:10:40;100796.35;;;0.21;74.96
44044;BME280;29709;52.396;16.796;2024-01-16T16:13:54;100800.79;;;0.22;74.99
44044;BME280;29709;52.396;16.796;2024-01-16T16:17:07;100811.98;;;0.16;75.48
44044;BME280;29709;52.396;16.796;2024-01-16T16:20:21;100808.73;;;0.11;76.00
44044;BME280;29709;52.396;16.796;2024-01-16T16:23:37;100810.48;;;0.12;76.48
44044;BME280;29709;52.396;16.796;2024-01-16T16:26:51;100807.08;;;0.09;77.25
44044;BME280;29709;52.396;16.796;2024-01-16T16:30:08;100806.80;;;0.13;77.36
44044;BME280;29709;52.396;16.796;2024-01-16T16:33:23;100805.82;;;0.14;77.75
44044;BME280;29709;52.396;16.796;2024-01-16T16:36:38;100800.63;;;0.11;77.78
44044;BME280;29709;52.396;16.796;2024-01-16T16:39:52;100790.86;;;0.09;78.07
44044;BME280;29709;52.396;16.796;2024-01-16T16:43:05;100795.83;;;0.02;79.33
44044;BME280;29709;52.396;16.796;2024-01-16T16:46:21;100795.24;;;-0.03;79.46
44044;BME280;29709;52.396;16.796;2024-01-16T16:49:34;100784.27;;;0.00;81.03
44044;BME280;29709;52.396;16.796;2024-01-16T16:52:48;100771.84;;;0.10;80.79
44044;BME280;29709;52.396;16.796;2024-01-16T16:56:01;100777.67;;;0.04;79.83
44044;BME280;29709;52.396;16.796;2024-01-16T16:59:14;100767.84;;;0.03;79.82
44044;BME280;29709;52.396;16.796;2024-01-16T17:02:27;100768.73;;;-0.11;80.43
44044;BME280;29709;52.396;16.796;2024-01-16T17:05:41;100761.59;;;-0.12;81.24
44044;BME280;29709;52.396;16.796;2024-01-16T17:08:57;100761.42;;;-0.09;81.22